Time,TemperatureF,DewpointF,PressureIn,WindDirection,WindDirectionDegrees,WindSpeedMPH,WindSpeedGustMPH,Humidity,HourlyPrecipIn,Conditions,Clouds,dailyrainin,SolarRadiationWatts/m^2,SoftwareType,DateUTC
2013-08-08 00:01:00,67.0,48.0,-100.00,ENE,68,7.0,15.0,51,0.00,,,0.00,0.000000,,2013-08-08 06:01:00,
2013-08-08 00:11:00,67.0,48.0,-100.00,ENE,68,7.0,15.0,51,0.00,,,0.00,0.000000,,2013-08-08 06:11:00,
2013-08-08 00:21:00,67.0,48.0,-100.00,ENE,68,7.0,15.0,51,0.00,,,0.00,0.000000,,2013-08-08 06:21:00,
2013-08-08 00:30:00,67.0,49.0,-100.00,NE,40,7.0,11.0,53,0.00,,,0.00,0.000000,,2013-08-08 06:30:00,
2013-08-08 01:01:00,67.0,49.0,-100.00,NE,40,7.0,11.0,53,0.00,,,0.00,0.000000,,2013-08-08 07:01:00,
2013-08-08 01:12:00,67.0,49.0,-100.00,NE,40,7.0,11.0,53,0.00,,,0.00,0.000000,,2013-08-08 07:12:00,
2013-08-08 01:22:00,67.0,49.0,-100.00,NE,40,7.0,11.0,53,0.00,,,0.00,0.000000,,2013-08-08 07:22:00,
2013-08-08 01:30:00,62.0,47.0,-100.00,NW,312,6.0,11.0,59,0.00,,,0.00,0.000000,,2013-08-08 07:30:00,
2013-08-08 02:01:00,62.0,47.0,-100.00,NW,312,6.0,11.0,59,0.00,,,0.00,0.000000,,2013-08-08 08:01:00,
2013-08-08 02:11:00,62.0,47.0,-100.00,NW,312,6.0,11.0,59,0.00,,,0.00,0.000000,,2013-08-08 08:11:00,
2013-08-08 02:21:00,62.0,47.0,-100.00,NW,312,6.0,11.0,59,0.00,,,0.00,0.000000,,2013-08-08 08:21:00,
2013-08-08 02:30:00,60.0,47.0,-100.00,West,259,5.0,12.0,61,0.00,,,0.00,0.000000,,2013-08-08 08:30:00,
2013-08-08 03:01:00,60.0,47.0,-100.00,West,259,5.0,12.0,61,0.00,,,0.00,0.000000,,2013-08-08 09:01:00,
2013-08-08 03:12:00,60.0,47.0,-100.00,West,259,5.0,12.0,61,0.00,,,0.00,0.000000,,2013-08-08 09:12:00,
2013-08-08 03:22:00,60.0,47.0,-100.00,West,259,5.0,12.0,61,0.00,,,0.00,0.000000,,2013-08-08 09:22:00,
2013-08-08 03:30:00,53.0,45.0,-100.00,West,280,4.0,6.0,75,0.00,,,0.00,0.000000,,2013-08-08 09:30:00,
2013-08-08 04:01:00,53.0,45.0,-100.00,West,280,4.0,6.0,75,0.00,,,0.00,0.000000,,2013-08-08 10:01:00,
2013-08-08 04:11:00,53.0,45.0,-100.00,West,280,4.0,6.0,75,0.00,,,0.00,0.000000,,2013-08-08 10:11:00,
2013-08-08 04:22:00,53.0,45.0,-100.00,West,280,4.0,6.0,75,0.00,,,0.00,0.000000,,2013-08-08 10:22:00,
2013-08-08 04:30:00,54.0,49.0,-100.00,WSW,246,5.0,6.0,83,0.00,,,-99.99,0.000000,,2013-08-08 10:30:00,
2013-08-08 05:01:00,54.0,49.0,-100.00,WSW,246,5.0,6.0,83,0.00,,,-99.99,0.000000,,2013-08-08 11:01:00,
2013-08-08 05:11:00,54.0,49.0,-100.00,WSW,246,5.0,6.0,83,0.00,,,-99.99,0.000000,,2013-08-08 11:11:00,
2013-08-08 05:21:00,54.0,49.0,-100.00,WSW,246,5.0,6.0,83,0.00,,,-99.99,0.000000,,2013-08-08 11:21:00,
2013-08-08 05:30:00,54.0,47.0,-100.00,WSW,248,5.0,9.0,78,0.00,,,0.00,0.000000,,2013-08-08 11:30:00,
2013-08-08 06:01:00,54.0,47.0,-100.00,WSW,248,5.0,9.0,78,0.00,,,0.00,0.000000,,2013-08-08 12:01:00,
2013-08-08 06:11:00,54.0,47.0,-100.00,WSW,248,5.0,9.0,78,0.00,,,0.00,0.000000,,2013-08-08 12:11:00,
2013-08-08 06:21:00,54.0,47.0,-100.00,WSW,248,5.0,9.0,78,0.00,,,0.00,0.000000,,2013-08-08 12:21:00,
2013-08-08 06:30:00,51.0,46.0,-100.00,West,277,4.0,6.0,83,0.00,,,0.00,2.000000,,2013-08-08 12:30:00,
2013-08-08 07:01:00,51.0,46.0,-100.00,West,277,4.0,6.0,83,0.00,,,0.00,2.000000,,2013-08-08 13:01:00,
2013-08-08 07:11:00,51.0,46.0,-100.00,West,277,4.0,6.0,83,0.00,,,0.00,2.000000,,2013-08-08 13:11:00,
2013-08-08 07:22:00,51.0,46.0,-100.00,West,277,4.0,6.0,83,0.00,,,0.00,2.000000,,2013-08-08 13:22:00,
2013-08-08 07:30:00,57.0,51.0,-100.00,NW,316,5.0,7.0,81,0.00,,,0.00,54.000000,,2013-08-08 13:30:00,
2013-08-08 08:02:00,57.0,51.0,-100.00,NW,316,5.0,7.0,81,0.00,,,0.00,54.000000,,2013-08-08 14:02:00,
2013-08-08 08:11:00,57.0,51.0,-100.00,NW,316,5.0,7.0,81,0.00,,,0.00,54.000000,,2013-08-08 14:11:00,
2013-08-08 08:22:00,57.0,51.0,-100.00,NW,316,5.0,7.0,81,0.00,,,0.00,54.000000,,2013-08-08 14:22:00,
2013-08-08 08:30:00,62.0,52.0,-100.00,WNW,297,3.0,7.0,70,0.00,,,0.00,225.000000,,2013-08-08 14:30:00,
2013-08-08 09:02:00,62.0,52.0,-100.00,WNW,297,3.0,7.0,70,0.00,,,0.00,225.000000,,2013-08-08 15:02:00,
2013-08-08 09:11:00,62.0,52.0,-100.00,WNW,297,3.0,7.0,70,0.00,,,0.00,225.000000,,2013-08-08 15:11:00,
2013-08-08 09:22:00,62.0,52.0,-100.00,WNW,297,3.0,7.0,70,0.00,,,0.00,225.000000,,2013-08-08 15:22:00,
2013-08-08 09:30:00,67.0,54.0,-100.00,SE,134,3.0,5.0,62,0.00,,,0.00,426.000000,,2013-08-08 15:30:00,
2013-08-08 10:01:00,67.0,54.0,-100.00,SE,134,3.0,5.0,62,0.00,,,0.00,426.000000,,2013-08-08 16:01:00,
2013-08-08 10:11:00,67.0,54.0,-100.00,SE,134,3.0,5.0,62,0.00,,,0.00,426.000000,,2013-08-08 16:11:00,
2013-08-08 10:22:00,67.0,54.0,-100.00,SE,134,3.0,5.0,62,0.00,,,0.00,426.000000,,2013-08-08 16:22:00,
2013-08-08 10:30:00,71.0,53.0,-100.00,ESE,119,5.0,8.0,53,0.00,,,0.00,627.000000,,2013-08-08 16:30:00,
2013-08-08 11:01:00,71.0,53.0,-100.00,ESE,119,5.0,8.0,53,0.00,,,0.00,627.000000,,2013-08-08 17:01:00,
2013-08-08 11:11:00,71.0,53.0,-100.00,ESE,119,5.0,8.0,53,0.00,,,0.00,627.000000,,2013-08-08 17:11:00,
2013-08-08 11:21:00,71.0,53.0,-100.00,ESE,119,5.0,8.0,53,0.00,,,0.00,627.000000,,2013-08-08 17:21:00,
2013-08-08 11:30:00,73.0,54.0,-100.00,ESE,112,12.0,16.0,52,0.00,,,0.00,788.000000,,2013-08-08 17:30:00,
2013-08-08 12:01:00,73.0,54.0,-100.00,ESE,112,12.0,16.0,52,0.00,,,0.00,788.000000,,2013-08-08 18:01:00,
2013-08-08 12:11:00,73.0,54.0,-100.00,ESE,112,12.0,16.0,52,0.00,,,0.00,788.000000,,2013-08-08 18:11:00,
2013-08-08 12:21:00,73.0,54.0,-100.00,ESE,112,12.0,16.0,52,0.00,,,0.00,788.000000,,2013-08-08 18:21:00,
2013-08-08 12:30:00,76.0,53.0,-100.00,East,87,11.0,19.0,45,0.00,,,0.00,935.000000,,2013-08-08 18:30:00,
2013-08-08 13:01:00,76.0,53.0,-100.00,East,87,11.0,19.0,45,0.00,,,0.00,935.000000,,2013-08-08 19:01:00,
2013-08-08 13:11:00,76.0,53.0,-100.00,East,87,11.0,19.0,45,0.00,,,0.00,935.000000,,2013-08-08 19:11:00,
2013-08-08 13:21:00,76.0,53.0,-100.00,East,87,11.0,19.0,45,0.00,,,0.00,935.000000,,2013-08-08 19:21:00,
2013-08-08 13:30:00,78.0,53.0,-100.00,East,94,14.0,22.0,42,0.00,,,0.00,1018.000000,,2013-08-08 19:30:00,
2013-08-08 14:02:00,78.0,53.0,-100.00,East,94,14.0,22.0,42,0.00,,,0.00,1018.000000,,2013-08-08 20:02:00,
2013-08-08 14:11:00,78.0,53.0,-100.00,East,94,14.0,22.0,42,0.00,,,0.00,1018.000000,,2013-08-08 20:11:00,
2013-08-08 14:22:00,78.0,53.0,-100.00,East,94,14.0,22.0,42,0.00,,,0.00,1018.000000,,2013-08-08 20:22:00,
2013-08-08 14:30:00,79.0,51.0,-100.00,East,83,14.0,20.0,38,0.00,,,0.00,1030.000000,,2013-08-08 20:30:00,
2013-08-08 15:01:00,79.0,51.0,-100.00,East,83,14.0,20.0,38,0.00,,,0.00,1030.000000,,2013-08-08 21:01:00,
2013-08-08 15:12:00,79.0,51.0,-100.00,East,83,14.0,20.0,38,0.00,,,0.00,1030.000000,,2013-08-08 21:12:00,
2013-08-08 15:22:00,79.0,51.0,-100.00,East,83,14.0,20.0,38,0.00,,,0.00,1030.000000,,2013-08-08 21:22:00,
2013-08-08 15:30:00,81.0,52.0,-100.00,East,88,13.0,23.0,36,0.00,,,0.00,858.000000,,2013-08-08 21:30:00,
2013-08-08 16:04:00,81.0,52.0,-100.00,East,88,13.0,23.0,36,0.00,,,0.00,858.000000,,2013-08-08 22:04:00,
2013-08-08 16:13:00,81.0,52.0,-100.00,East,88,13.0,23.0,36,0.00,,,0.00,858.000000,,2013-08-08 22:13:00,
2013-08-08 16:22:00,81.0,52.0,-100.00,East,88,13.0,23.0,36,0.00,,,0.00,858.000000,,2013-08-08 22:22:00,
2013-08-08 16:30:00,78.0,49.0,-100.00,ENE,61,11.0,25.0,36,0.00,,,0.00,687.000000,,2013-08-08 22:30:00,
2013-08-08 17:04:00,78.0,49.0,-100.00,ENE,61,11.0,25.0,36,0.00,,,0.00,687.000000,,2013-08-08 23:04:00,
2013-08-08 17:13:00,78.0,49.0,-100.00,ENE,61,11.0,25.0,36,0.00,,,0.00,687.000000,,2013-08-08 23:13:00,
2013-08-08 17:23:00,78.0,49.0,-100.00,ENE,61,11.0,25.0,36,0.00,,,0.00,687.000000,,2013-08-08 23:23:00,
2013-08-08 17:30:00,81.0,52.0,-100.00,East,88,13.0,20.0,36,0.00,,,0.00,606.000000,,2013-08-08 23:30:00,
2013-08-08 18:13:00,81.0,52.0,-100.00,East,88,13.0,20.0,36,0.00,,,0.00,606.000000,,2013-08-09 00:13:00,
2013-08-08 19:02:00,78.0,47.0,-100.00,ENE,69,12.0,22.0,34,0.00,,,0.00,499.000000,,2013-08-09 01:02:00,
2013-08-08 19:23:00,78.0,47.0,-100.00,ENE,69,12.0,22.0,34,0.00,,,0.00,499.000000,,2013-08-09 01:23:00,
2013-08-08 19:30:00,78.0,49.0,-100.00,ENE,75,13.0,20.0,36,0.00,,,0.00,275.000000,,2013-08-09 01:30:00,
2013-08-08 20:03:00,78.0,49.0,-100.00,ENE,75,13.0,20.0,36,0.00,,,0.00,275.000000,,2013-08-09 02:03:00,
2013-08-08 20:12:00,78.0,49.0,-100.00,ENE,75,13.0,20.0,36,0.00,,,0.00,275.000000,,2013-08-09 02:12:00,
2013-08-08 20:23:00,78.0,49.0,-100.00,ENE,75,13.0,20.0,36,0.00,,,0.00,275.000000,,2013-08-09 02:23:00,
2013-08-08 20:30:00,73.0,48.0,-100.00,East,79,15.0,23.0,41,0.00,,,0.00,49.000000,,2013-08-09 02:30:00,
2013-08-08 20:56:00,73.0,48.0,-100.00,East,79,15.0,23.0,41,0.00,,,0.00,49.000000,,2013-08-09 02:56:00,
2013-08-08 21:04:00,73.0,48.0,-100.00,East,79,15.0,23.0,41,0.00,,,0.00,49.000000,,2013-08-09 03:04:00,
2013-08-08 21:12:00,73.0,48.0,-100.00,East,79,15.0,23.0,41,0.00,,,0.00,49.000000,,2013-08-09 03:12:00,
2013-08-08 21:23:00,73.0,48.0,-100.00,East,79,15.0,23.0,41,0.00,,,0.00,49.000000,,2013-08-09 03:23:00,
2013-08-08 21:30:00,70.0,48.0,-100.00,ENE,76,14.0,28.0,46,0.00,,,0.00,4.000000,,2013-08-09 03:30:00,
2013-08-08 22:01:00,70.0,48.0,-100.00,ENE,76,14.0,28.0,46,0.00,,,0.00,4.000000,,2013-08-09 04:01:00,
2013-08-08 22:12:00,70.0,48.0,-100.00,ENE,76,14.0,28.0,46,0.00,,,0.00,4.000000,,2013-08-09 04:12:00,
2013-08-08 22:22:00,70.0,48.0,-100.00,ENE,76,14.0,28.0,46,0.00,,,0.00,4.000000,,2013-08-09 04:22:00,
2013-08-08 22:30:00,68.0,50.0,-100.00,ENE,76,11.0,19.0,52,0.00,,,0.00,0.000000,,2013-08-09 04:30:00,
2013-08-08 23:01:00,68.0,50.0,-100.00,ENE,76,11.0,19.0,52,0.00,,,0.00,0.000000,,2013-08-09 05:01:00,
2013-08-08 23:11:00,68.0,50.0,-100.00,ENE,76,11.0,19.0,52,0.00,,,0.00,0.000000,,2013-08-09 05:11:00,
2013-08-08 23:21:00,68.0,50.0,-100.00,ENE,76,11.0,19.0,52,0.00,,,0.00,0.000000,,2013-08-09 05:21:00,
2013-08-08 23:30:00,66.0,49.0,-100.00,NE,53,7.0,20.0,55,0.00,,,-99.99,0.000000,,2013-08-09 05:30:00,